AirNav   Air Wisconsin Up To $57,000 Bonus
 
 1285 users online  

3WA9 Sequim EMS Heliport
Sequim, Washington, USA

GOING TO SEQUIM?


FAA INFORMATION EFFECTIVE 22 APRIL 2021

Location

FAA Identifier: 3WA9
Lat/Long: 48-05-18.3000N 123-06-39.2300W
48-05.305000N 123-06.653833W
48.0884167,-123.1108972
(estimated)
Elevation: 170 ft. / 52 m (estimated)
Time zone: UTC -7 (UTC -8 during Standard Time)
Zip code: 98382

Heliport Operations

Heliport use: Private use. Permission required prior to landing
Activation date: 02/2011
Control tower: no
ARTCC: SEATTLE CENTER
FSS: SEATTLE FLIGHT SERVICE STATION
Attendance: UNATNDD
Wind indicator: lighted
Segmented circle: no

Heliport Communications

WX AWOS-3P at 0S9 (12 nm E): 119.025 (360-379-1199)
WX AWOS-3P at NOW (13 nm W): 118.325 (360-457-7529)
WX ASOS at CLM (16 nm W): 135.175 (360-457-1070)

Nearby radio navigation aids

VOR radial/distance  VOR name  Freq  Var
CVVr220/18.1PENN COVE VOR/DME117.2019E
PAEr267/34.9PAINE VOR/DME110.6020E

 
NDB name  Hdg/Dist  Freq  Var  ID
EDIZ HOOK088/12.133817ENOW -. --- .--
FRIDAY HARBOR171/25.728417EFHR ..-. .... .-.
SKAGIT/BAY VIEW214/35.824016EBVS -... ...- ...

Heliport Services

Runway Information

Helipad H1

Dimensions: 40 x 40 ft. / 12 x 12 m
Surface: concrete, in good condition
Runway edge lights: PERI
Latitude: 48-05.305000N
Longitude: 123-06.653833W
Elevation: 170.0 ft.
Traffic pattern: leftleft

Heliport Ownership and Management from official FAA records

Ownership: Privately-owned
Owner: OLYMPIC MEDICAL CENTER
939 CAROLINE ST
PORT ANGELES, WA 98362
Phone 360-417-7170
Manager: JULIE BLACK
939 CAROLINE ST
PORT ANGELES, WA 98362
Phone 360-912-1737

Additional Remarks

FOR CD CTC SEATTLE ARTCC AT 253-351-3694.

Instrument Procedures

There are no published instrument procedures at 3WA9.

Some nearby airports with instrument procedures:

0S9 - Jefferson County International Airport (12 nm E)
KNOW - Port Angeles Coast Guard Air Station Airport (13 nm W)
KCLM - William R Fairchild International Airport (16 nm W)
KOKH - AJ Eisenberg Airport (20 nm NE)
KNUW - Whidbey Island Naval Air Station (Ault Field) (24 nm NE)
 
Loc | Ops | Rwys | IFR | FBO | Links
Com | Nav | Svcs | Stats | Notes
Aerial photo
No photo
 
Sectional chart

 
Airport distance calculator
Flying to Sequim EMS Heliport? Find the distance to fly.

From to 3WA9

Sunrise and sunset
Times for 05-May-2021
 Local
(UTC-7)
 Zulu
(UTC)
Morning civil twilight05:1312:13
Sunrise05:4812:48
Sunset20:3003:30
Evening civil twilight21:0504:05

Current date and time
Zulu (UTC)  05-May-2021 22:01:00
Local (UTC-7)  05-May-2021 15:01:00
 
METAR
K0S9 
12nm E 
052155Z AUTO 26009KT 10SM CLR 16/09 A2999 RMK AO2
KCLM 
16nm W 
052053Z AUTO 07005KT 10SM CLR 13/06 A3003 RMK AO2 SLP170 T01330061 56021
KNOW 
20nm W 
052135Z AUTO 00000KT 10SM CLR 11/07 A3003 RMK AO2 T01110067
CWQK 
20nm NW 
052100Z AUTO 06013KT 12/ RMK AO1 PK WND 04017/2023 SLP165 T0123 56018
CWLM 
21nm NW 
052100Z AUTO 02010G16KT 15/07 RMK AO1 PK WND 35018/2042 SLP165 T01540070 56027
CYWH 
21nm NW 
052100Z 36006G16KT 320V070 15SM FEW100 BKN160 OVC220 15/06 A3002 RMK AC2AC4CI2 SLP167
CWYJ 
23nm N 
052100Z AUTO 35008G16KT 14/06 RMK AO1 SLP168 T01400064 56025
CWPF 
23nm NW 
052145Z AUTO 01009KT 16/06 RMK AO1 SLP158 T01570062 56023
KNUW 
24nm NE 
052056Z 25009KT 10SM FEW120 BKN160 OVC230 13/08 A3005 RMK AO2 SLP174 T01280083 56030
TAF
KCLM 
16nm W 
051720Z 0518/0618 09004KT P6SM SCT250 FM060000 00000KT P6SM BKN250 FM060600 27004KT P6SM BKN250
NOTAMs
Click for the latest NOTAMs
NOTAMs are issued by the DoD/FAA and will open in a separate window not controlled by AirNav.

 

 
 

Would you like to see your business listed on this page?

 If your business provides an interesting product or service to pilots, flight crews, aircraft, or users of the Sequim EMS Heliport, you should consider listing it here.  To start the listing process, click on the button below
 
Add a business
 

Other Pages about Sequim EMS Heliport

Update a link
 
Copyright © AirNav, LLC. All rights reserved. Privacy Policy  Contact